createdAt,value
2024-01-31T00:01:44.844Z,11.47
2024-01-31T00:04:00.683Z,11.42
2024-01-31T00:06:14.669Z,11.39
2024-01-31T00:08:30.795Z,11.35
2024-01-31T00:10:44.017Z,11.28
2024-01-31T00:12:56.842Z,11.32
2024-01-31T00:15:21.417Z,11.34
2024-01-31T00:17:37.491Z,11.36
2024-01-31T00:19:53.332Z,11.39
2024-01-31T00:22:06.040Z,11.42
2024-01-31T00:24:18.680Z,11.44
2024-01-31T00:26:31.879Z,11.43
2024-01-31T00:28:45.167Z,11.43
2024-01-31T00:30:58.166Z,11.44
2024-01-31T00:33:30.969Z,11.44
2024-01-31T00:35:43.877Z,11.43
2024-01-31T00:37:57.411Z,11.42
2024-01-31T00:40:20.959Z,11.43
2024-01-31T00:42:33.860Z,11.41
2024-01-31T00:44:46.669Z,11.40
2024-01-31T00:46:59.720Z,11.37
2024-01-31T00:49:12.612Z,11.36
2024-01-31T00:51:25.764Z,11.32
2024-01-31T00:53:38.689Z,11.26
2024-01-31T00:55:51.708Z,11.21
2024-01-31T00:58:04.636Z,11.15
2024-01-31T01:00:20.231Z,11.13
2024-01-31T01:02:32.956Z,11.09
2024-01-31T01:04:45.628Z,11.04
2024-01-31T01:06:58.375Z,10.99
2024-01-31T01:09:11.206Z,10.94
2024-01-31T01:11:23.874Z,10.90
2024-01-31T01:13:49.450Z,10.88
2024-01-31T01:16:02.116Z,10.87
2024-01-31T01:18:20.651Z,10.83
2024-01-31T01:20:33.488Z,10.80
2024-01-31T01:22:50.423Z,10.79
2024-01-31T01:25:03.564Z,10.77
2024-01-31T01:27:16.613Z,10.77
2024-01-31T01:29:40.357Z,10.81
2024-01-31T01:31:56.519Z,10.83
2024-01-31T01:34:09.079Z,10.84
2024-01-31T01:36:21.879Z,10.82
2024-01-31T01:38:38.879Z,10.80
2024-01-31T01:40:55.519Z,10.77
2024-01-31T01:43:17.459Z,10.77
2024-01-31T01:45:31.825Z,10.77
2024-01-31T01:47:52.902Z,10.78
2024-01-31T01:50:06.499Z,10.79
2024-01-31T01:52:30.987Z,10.80
2024-01-31T01:54:44.526Z,10.80
2024-01-31T01:56:57.674Z,10.78
2024-01-31T01:59:10.327Z,10.74
2024-01-31T02:01:23.896Z,10.71
2024-01-31T02:03:37.121Z,10.69
2024-01-31T02:05:52.027Z,10.69
2024-01-31T02:08:05.695Z,10.66
2024-01-31T02:10:19.119Z,10.66
2024-01-31T02:12:32.355Z,10.67
2024-01-31T02:14:47.055Z,10.65
2024-01-31T02:17:03.440Z,10.70
2024-01-31T02:19:16.352Z,10.68
2024-01-31T02:21:32.010Z,10.70
2024-01-31T02:23:47.461Z,10.70
2024-01-31T02:26:00.518Z,10.71
2024-01-31T02:28:13.436Z,10.70
2024-01-31T02:30:26.242Z,10.70
2024-01-31T02:32:38.882Z,10.70
2024-01-31T02:34:54.540Z,10.69
2024-01-31T02:37:07.476Z,10.68
2024-01-31T02:39:23.579Z,10.68
2024-01-31T02:41:36.583Z,10.69
2024-01-31T02:43:49.340Z,10.69
2024-01-31T02:46:03.454Z,10.71
2024-01-31T02:48:37.130Z,10.73
2024-01-31T02:50:51.192Z,10.75
2024-01-31T02:53:04.088Z,10.78
2024-01-31T02:55:17.460Z,10.79
2024-01-31T02:57:30.340Z,10.80
2024-01-31T02:59:48.074Z,10.79
2024-01-31T03:02:01.390Z,10.79
2024-01-31T03:04:14.869Z,10.77
2024-01-31T03:06:27.865Z,10.78
2024-01-31T03:08:40.738Z,10.77
2024-01-31T03:10:56.527Z,10.77
2024-01-31T03:13:09.911Z,10.77
2024-01-31T03:15:22.947Z,10.77
2024-01-31T03:17:38.313Z,10.77
2024-01-31T03:19:51.826Z,10.77
2024-01-31T03:22:07.605Z,10.76
2024-01-31T03:24:20.596Z,10.76
2024-01-31T03:26:33.774Z,10.76
2024-01-31T03:28:46.840Z,10.78
2024-01-31T03:30:59.834Z,10.79
2024-01-31T03:33:15.123Z,10.81
2024-01-31T03:35:28.131Z,10.83
2024-01-31T03:37:51.989Z,10.85
2024-01-31T03:40:06.751Z,10.87
2024-01-31T03:42:29.944Z,10.90
2024-01-31T03:44:54.010Z,10.92
2024-01-31T03:47:06.806Z,10.91
2024-01-31T03:49:22.606Z,10.86
2024-01-31T03:51:36.114Z,10.83
2024-01-31T03:53:59.438Z,10.80
2024-01-31T03:56:15.319Z,10.74
2024-01-31T03:58:28.281Z,10.72
2024-01-31T04:00:46.767Z,10.72
2024-01-31T04:02:59.592Z,10.74
2024-01-31T04:05:15.973Z,10.79
2024-01-31T04:07:29.235Z,10.80
2024-01-31T04:09:45.284Z,10.82
2024-01-31T04:11:57.993Z,10.83
2024-01-31T04:14:19.844Z,10.81
2024-01-31T04:16:32.892Z,10.79
2024-01-31T04:18:45.645Z,10.78
2024-01-31T04:21:03.898Z,10.76
2024-01-31T04:23:26.363Z,10.73
2024-01-31T04:25:39.378Z,10.71
2024-01-31T04:27:55.724Z,10.67
2024-01-31T04:30:08.987Z,10.64
2024-01-31T04:32:21.687Z,10.58
2024-01-31T04:34:34.534Z,10.54
2024-01-31T04:36:47.608Z,10.50
2024-01-31T04:39:00.275Z,10.49
2024-01-31T04:41:15.837Z,10.45
2024-01-31T04:43:28.716Z,10.40
2024-01-31T04:45:41.828Z,10.36
2024-01-31T04:47:54.595Z,10.30
2024-01-31T04:50:07.552Z,10.22
2024-01-31T04:52:20.797Z,10.16
2024-01-31T04:54:33.911Z,10.10
2024-01-31T04:56:47.431Z,10.04
2024-01-31T04:59:00.229Z,10.01
2024-01-31T05:01:12.989Z,10.00
2024-01-31T05:03:26.001Z,9.98
2024-01-31T05:05:38.913Z,9.97
2024-01-31T05:07:51.906Z,9.94
2024-01-31T05:10:07.731Z,9.93
2024-01-31T05:12:20.559Z,9.91
2024-01-31T05:14:33.157Z,9.91
2024-01-31T05:16:49.569Z,9.89
2024-01-31T05:19:02.362Z,9.89
2024-01-31T05:21:15.136Z,9.88
2024-01-31T05:23:27.658Z,9.86
2024-01-31T05:25:40.764Z,9.86
2024-01-31T05:27:57.363Z,9.84
2024-01-31T05:30:11.281Z,9.84
2024-01-31T05:32:23.902Z,9.81
2024-01-31T05:34:36.985Z,9.82
2024-01-31T05:36:53.551Z,9.81
2024-01-31T05:39:06.470Z,9.80
2024-01-31T05:41:22.324Z,9.78
2024-01-31T05:43:36.374Z,9.74
2024-01-31T05:45:49.740Z,9.73
2024-01-31T05:48:04.293Z,9.71
2024-01-31T05:50:17.556Z,9.67
2024-01-31T05:52:34.034Z,9.62
2024-01-31T05:54:47.512Z,9.59
2024-01-31T05:57:11.529Z,9.55
2024-01-31T05:59:24.174Z,9.54
2024-01-31T06:01:39.904Z,9.54
2024-01-31T06:04:13.093Z,9.53
2024-01-31T06:06:45.692Z,9.53
2024-01-31T06:09:00.702Z,9.53
2024-01-31T06:11:13.447Z,9.54
2024-01-31T06:13:29.901Z,9.52
2024-01-31T06:15:45.530Z,9.56
2024-01-31T06:18:01.844Z,9.58
2024-01-31T06:20:17.547Z,9.59
2024-01-31T06:22:40.631Z,9.61
2024-01-31T06:25:14.312Z,9.63
2024-01-31T06:27:27.801Z,9.65
2024-01-31T06:29:42.681Z,9.70
2024-01-31T06:31:58.887Z,9.73
2024-01-31T06:34:31.581Z,9.75
2024-01-31T06:36:56.844Z,9.74
2024-01-31T06:39:11.984Z,9.73
2024-01-31T06:41:24.818Z,9.70
2024-01-31T06:43:37.804Z,9.71
2024-01-31T06:45:50.742Z,9.70
2024-01-31T06:48:12.786Z,9.69
2024-01-31T06:50:29.902Z,9.66
2024-01-31T06:52:42.766Z,9.63
2024-01-31T06:54:55.523Z,9.60
2024-01-31T06:57:28.149Z,9.61
2024-01-31T06:59:52.578Z,9.61
2024-01-31T07:02:05.218Z,9.61
2024-01-31T07:04:17.993Z,9.61
2024-01-31T07:06:41.988Z,9.62
2024-01-31T07:08:54.908Z,9.63
2024-01-31T07:11:09.802Z,9.64
2024-01-31T07:13:22.984Z,9.67
2024-01-31T07:15:35.558Z,9.68
2024-01-31T07:17:48.253Z,9.70
2024-01-31T07:20:01.067Z,9.72
2024-01-31T07:22:14.158Z,9.77
2024-01-31T07:24:38.304Z,9.76
2024-01-31T07:26:51.079Z,9.79
2024-01-31T07:29:14.378Z,9.79
2024-01-31T07:31:47.524Z,9.80
2024-01-31T07:34:21.016Z,9.79
2024-01-31T07:36:37.273Z,9.83
2024-01-31T07:39:10.013Z,9.86
2024-01-31T07:41:23.053Z,9.90
2024-01-31T07:43:35.853Z,9.93
2024-01-31T07:45:49.108Z,9.94
2024-01-31T07:48:02.568Z,9.96
2024-01-31T07:50:18.493Z,9.96
2024-01-31T07:52:31.071Z,9.96
2024-01-31T07:55:04.013Z,9.95
2024-01-31T07:57:29.214Z,9.94
2024-01-31T07:59:41.922Z,9.96
2024-01-31T08:01:55.059Z,9.98
2024-01-31T08:04:11.211Z,10.02
2024-01-31T08:06:27.063Z,10.05
2024-01-31T08:09:07.723Z,10.09
2024-01-31T08:11:24.715Z,10.11
2024-01-31T08:13:37.628Z,10.11
2024-01-31T08:15:50.793Z,10.11
2024-01-31T08:18:03.611Z,10.11
2024-01-31T08:20:36.386Z,10.11
2024-01-31T08:23:09.314Z,10.13
2024-01-31T08:25:22.101Z,10.17
2024-01-31T08:27:35.840Z,10.19
2024-01-31T08:29:48.784Z,10.20
2024-01-31T08:32:13.455Z,10.22
2024-01-31T08:34:29.667Z,10.24
2024-01-31T08:36:48.011Z,10.26
2024-01-31T08:39:02.067Z,10.27
2024-01-31T08:41:15.318Z,10.30
2024-01-31T08:43:28.220Z,10.33
2024-01-31T08:45:41.074Z,10.35
2024-01-31T08:47:53.954Z,10.37
2024-01-31T08:50:21.047Z,10.38
2024-01-31T08:52:34.153Z,10.39
2024-01-31T08:55:08.097Z,10.38
2024-01-31T08:57:41.182Z,10.35
2024-01-31T08:59:53.805Z,10.31
2024-01-31T09:02:07.629Z,10.24
2024-01-31T09:04:23.406Z,10.17
2024-01-31T09:06:37.728Z,10.11
2024-01-31T09:09:00.385Z,10.04
2024-01-31T09:11:24.070Z,10.06
2024-01-31T09:13:37.365Z,10.05
2024-01-31T09:15:50.119Z,9.99
2024-01-31T09:18:13.724Z,9.94
2024-01-31T09:20:26.484Z,9.94
2024-01-31T09:22:41.066Z,9.91
2024-01-31T09:24:53.854Z,9.90
2024-01-31T09:27:17.675Z,9.89
2024-01-31T09:29:33.732Z,9.91
2024-01-31T09:31:49.661Z,9.93
2024-01-31T09:34:03.374Z,9.96
2024-01-31T09:36:16.241Z,9.95
2024-01-31T09:38:50.262Z,9.94
2024-01-31T09:41:06.252Z,9.97
2024-01-31T09:43:29.017Z,9.97
2024-01-31T09:45:45.258Z,9.97
2024-01-31T09:48:00.805Z,9.97
2024-01-31T09:50:14.652Z,9.97
2024-01-31T09:52:39.553Z,9.97
2024-01-31T09:54:55.794Z,9.94
2024-01-31T09:57:09.156Z,9.92
2024-01-31T09:59:22.090Z,9.88
2024-01-31T10:01:36.230Z,9.82
2024-01-31T10:03:49.162Z,9.79
2024-01-31T10:06:22.588Z,9.73
2024-01-31T10:08:39.619Z,9.69
2024-01-31T10:10:52.604Z,9.69
2024-01-31T10:13:06.257Z,9.68
2024-01-31T10:15:22.121Z,9.70
2024-01-31T10:17:36.546Z,9.72
2024-01-31T10:19:49.639Z,9.72
2024-01-31T10:22:13.820Z,9.76
2024-01-31T10:24:26.768Z,9.77
2024-01-31T10:26:43.150Z,9.79
2024-01-31T10:29:04.292Z,9.81
2024-01-31T10:31:22.710Z,9.80
2024-01-31T10:33:35.920Z,9.79
2024-01-31T10:36:25.002Z,9.75
2024-01-31T10:38:23.460Z,9.71
2024-01-31T10:40:38.418Z,9.69
2024-01-31T10:42:54.521Z,9.63
2024-01-31T10:45:11.162Z,9.59
2024-01-31T10:47:24.537Z,9.58
2024-01-31T10:49:37.623Z,9.54
2024-01-31T10:51:54.831Z,9.50
2024-01-31T10:54:21.031Z,9.46
2024-01-31T10:56:38.983Z,9.41
2024-01-31T10:58:52.639Z,9.35
2024-01-31T11:01:09.389Z,9.32
2024-01-31T11:03:42.340Z,9.29
2024-01-31T11:05:56.381Z,9.26
2024-01-31T11:08:23.645Z,9.25
2024-01-31T11:10:36.659Z,9.25
2024-01-31T11:12:58.865Z,9.26
2024-01-31T11:15:09.767Z,9.24
2024-01-31T11:17:29.147Z,9.22
2024-01-31T11:19:44.416Z,9.21
2024-01-31T11:22:04.167Z,9.19
2024-01-31T11:24:21.836Z,9.22
2024-01-31T11:26:37.846Z,9.21
2024-01-31T11:28:54.375Z,9.24
2024-01-31T11:31:07.540Z,9.26
2024-01-31T11:33:24.926Z,9.29
2024-01-31T11:35:38.152Z,9.28
2024-01-31T11:37:54.305Z,9.27
2024-01-31T11:40:12.145Z,9.26
2024-01-31T11:42:37.148Z,9.28
2024-01-31T11:44:53.455Z,9.27
2024-01-31T11:47:27.453Z,9.29
2024-01-31T11:49:40.467Z,9.30
2024-01-31T11:51:53.187Z,9.30
2024-01-31T11:54:07.530Z,9.31
2024-01-31T11:56:21.628Z,9.33
2024-01-31T11:58:34.781Z,9.36
2024-01-31T12:00:48.056Z,9.38
2024-01-31T12:03:01.956Z,9.39
2024-01-31T12:05:15.627Z,9.40
2024-01-31T12:07:28.495Z,9.43
2024-01-31T12:09:41.554Z,9.45
2024-01-31T12:11:53.907Z,9.47
2024-01-31T12:14:06.888Z,9.49
2024-01-31T12:16:19.629Z,9.52
2024-01-31T12:18:32.071Z,9.55
2024-01-31T12:20:44.631Z,9.57
2024-01-31T12:22:57.909Z,9.59
2024-01-31T12:25:11.177Z,9.60
2024-01-31T12:27:23.669Z,9.58
2024-01-31T12:29:38.764Z,9.55
2024-01-31T12:31:52.832Z,9.56
2024-01-31T12:34:05.620Z,9.56
2024-01-31T12:36:18.236Z,9.57
2024-01-31T12:38:30.808Z,9.58
2024-01-31T12:40:43.537Z,9.58
2024-01-31T12:42:56.754Z,9.57
2024-01-31T12:45:10.860Z,9.56
2024-01-31T12:47:23.772Z,9.57
2024-01-31T12:49:36.739Z,9.61
2024-01-31T12:51:49.454Z,9.66
2024-01-31T12:54:02.448Z,9.72
2024-01-31T12:56:15.612Z,9.76
2024-01-31T12:58:29.802Z,9.79
2024-01-31T13:00:42.944Z,9.81
2024-01-31T13:02:55.703Z,9.81
2024-01-31T13:05:09.395Z,9.85
2024-01-31T13:07:22.664Z,9.91
2024-01-31T13:09:35.637Z,9.95
2024-01-31T13:11:48.333Z,9.97
2024-01-31T13:14:01.786Z,10.00
2024-01-31T13:16:16.053Z,10.01
2024-01-31T13:18:28.927Z,10.02
2024-01-31T13:20:41.963Z,10.04
2024-01-31T13:22:55.174Z,10.02
2024-01-31T13:25:08.441Z,9.99
2024-01-31T13:27:21.141Z,9.96
2024-01-31T13:29:34.009Z,9.94
2024-01-31T13:31:47.053Z,9.93
2024-01-31T13:34:00.068Z,9.90
2024-01-31T13:36:14.211Z,9.87
2024-01-31T13:38:27.748Z,9.85
2024-01-31T13:40:40.397Z,9.83
2024-01-31T13:42:53.443Z,9.81
2024-01-31T13:45:06.913Z,9.78
2024-01-31T13:47:20.108Z,9.74
2024-01-31T13:49:32.717Z,9.69
2024-01-31T13:51:47.782Z,9.66
2024-01-31T13:54:00.395Z,9.65
2024-01-31T13:56:13.836Z,9.64
2024-01-31T13:58:26.480Z,9.64
2024-01-31T14:00:39.380Z,9.63
2024-01-31T14:02:52.185Z,9.66
2024-01-31T14:05:05.012Z,9.67
2024-01-31T14:07:18.049Z,9.68
2024-01-31T14:09:30.908Z,9.68
2024-01-31T14:11:43.883Z,9.66
2024-01-31T14:13:56.717Z,9.66
2024-01-31T14:16:16.294Z,9.63
2024-01-31T14:18:29.392Z,9.61
2024-01-31T14:20:42.545Z,9.60
2024-01-31T14:23:12.891Z,9.60
2024-01-31T14:25:27.907Z,9.60
2024-01-31T14:27:40.453Z,9.60
2024-01-31T14:29:53.227Z,9.60
2024-01-31T14:32:06.121Z,9.59
2024-01-31T14:34:18.933Z,9.57
2024-01-31T14:36:31.715Z,9.55
2024-01-31T14:38:44.824Z,9.53
2024-01-31T14:40:57.467Z,9.51
2024-01-31T14:43:11.701Z,9.48
2024-01-31T14:45:24.253Z,9.45
2024-01-31T14:47:37.164Z,9.40
2024-01-31T14:49:50.118Z,9.36
2024-01-31T14:52:02.567Z,9.32
2024-01-31T14:54:15.057Z,9.29
2024-01-31T14:56:27.676Z,9.24
2024-01-31T14:58:40.255Z,9.17
2024-01-31T15:00:52.670Z,9.09
2024-01-31T15:03:05.428Z,9.04
2024-01-31T15:05:18.247Z,8.97
2024-01-31T15:07:31.482Z,8.92
2024-01-31T15:09:44.265Z,8.87
2024-01-31T15:11:58.494Z,8.84
2024-01-31T15:14:10.910Z,8.79
2024-01-31T15:16:23.629Z,8.78
2024-01-31T15:18:36.343Z,8.77
2024-01-31T15:20:50.162Z,8.74
2024-01-31T15:23:04.913Z,8.73
2024-01-31T15:25:17.813Z,8.73
2024-01-31T15:27:30.321Z,8.73
2024-01-31T15:29:43.324Z,8.74
2024-01-31T15:31:55.813Z,8.73
2024-01-31T15:34:08.384Z,8.72
2024-01-31T15:36:25.135Z,8.74
2024-01-31T15:38:37.770Z,8.76
2024-01-31T15:40:50.421Z,8.79
2024-01-31T15:43:02.930Z,8.81
2024-01-31T15:45:17.756Z,8.82
2024-01-31T15:47:30.490Z,8.83
2024-01-31T15:49:43.285Z,8.83
2024-01-31T15:51:56.073Z,8.82
2024-01-31T15:54:08.806Z,8.81
2024-01-31T15:56:21.469Z,8.83
2024-01-31T15:58:36.034Z,8.83
2024-01-31T16:00:48.600Z,8.84
2024-01-31T16:03:02.443Z,8.83
2024-01-31T16:05:16.407Z,8.84
2024-01-31T16:07:28.778Z,8.83
2024-01-31T16:09:41.359Z,8.83
2024-01-31T16:11:54.389Z,8.81
2024-01-31T16:14:07.370Z,8.81
2024-01-31T16:16:20.159Z,8.81
2024-01-31T16:18:35.276Z,8.81
2024-01-31T16:20:48.455Z,8.82
2024-01-31T16:23:01.907Z,8.83
2024-01-31T16:25:15.418Z,8.84
2024-01-31T16:27:28.510Z,8.85
2024-01-31T16:29:41.184Z,8.86
2024-01-31T16:31:54.829Z,8.86
2024-01-31T16:34:07.969Z,8.85
2024-01-31T16:36:26.783Z,8.84
2024-01-31T16:38:39.401Z,8.83
2024-01-31T16:40:52.108Z,8.83
2024-01-31T16:43:05.921Z,8.83
2024-01-31T16:45:20.523Z,8.82
2024-01-31T16:47:33.178Z,8.82
2024-01-31T16:49:48.858Z,8.82
2024-01-31T16:52:04.736Z,8.81
2024-01-31T16:54:17.647Z,8.83
2024-01-31T16:56:30.648Z,8.81
2024-01-31T16:58:43.598Z,8.84
2024-01-31T17:00:56.048Z,8.86
2024-01-31T17:03:11.077Z,8.88
2024-01-31T17:05:23.964Z,8.92
2024-01-31T17:07:36.740Z,8.95
2024-01-31T17:09:50.008Z,8.95
2024-01-31T17:12:02.897Z,8.99
2024-01-31T17:14:16.477Z,8.99
2024-01-31T17:16:29.725Z,9.00
2024-01-31T17:18:42.288Z,9.01
2024-01-31T17:20:55.428Z,9.00
2024-01-31T17:23:08.124Z,9.03
2024-01-31T17:25:21.488Z,9.05
2024-01-31T17:27:34.016Z,9.07
2024-01-31T17:29:46.866Z,9.09
2024-01-31T17:31:59.810Z,9.10
2024-01-31T17:34:12.494Z,9.11
2024-01-31T17:36:25.891Z,9.11
2024-01-31T17:38:39.064Z,9.11
2024-01-31T17:40:52.528Z,9.13
2024-01-31T17:43:05.175Z,9.12
2024-01-31T17:45:18.229Z,9.14
2024-01-31T17:47:31.618Z,9.14
2024-01-31T17:49:44.094Z,9.15
2024-01-31T17:51:57.149Z,9.17
2024-01-31T17:54:09.900Z,9.19
2024-01-31T17:56:24.099Z,9.21
2024-01-31T17:58:42.032Z,9.25
2024-01-31T18:00:54.701Z,9.29
2024-01-31T18:03:07.935Z,9.33
2024-01-31T18:05:21.502Z,9.38
2024-01-31T18:07:34.457Z,9.42
2024-01-31T18:09:47.185Z,9.45
2024-01-31T18:12:00.170Z,9.48
2024-01-31T18:14:13.268Z,9.48
2024-01-31T18:16:25.869Z,9.51
2024-01-31T18:18:38.531Z,9.49
2024-01-31T18:20:51.092Z,9.51
2024-01-31T18:23:03.761Z,9.53
2024-01-31T18:25:17.164Z,9.53
2024-01-31T18:27:30.236Z,9.56
2024-01-31T18:29:43.268Z,9.56
2024-01-31T18:31:56.156Z,9.56
2024-01-31T18:34:08.769Z,9.56
2024-01-31T18:36:21.858Z,9.57
2024-01-31T18:38:36.025Z,9.56
2024-01-31T18:40:49.027Z,9.55
2024-01-31T18:43:01.502Z,9.55
2024-01-31T18:45:17.194Z,9.55
2024-01-31T18:47:29.705Z,9.54
2024-01-31T18:49:42.389Z,9.52
2024-01-31T18:51:55.191Z,9.52
2024-01-31T18:54:08.284Z,9.52
2024-01-31T18:56:21.098Z,9.53
2024-01-31T18:58:35.258Z,9.54
2024-01-31T19:00:47.908Z,9.57
2024-01-31T19:03:00.675Z,9.59
2024-01-31T19:05:14.695Z,9.62
2024-01-31T19:07:27.205Z,9.63
2024-01-31T19:09:40.090Z,9.68
2024-01-31T19:11:52.596Z,9.71
2024-01-31T19:14:07.571Z,9.74
2024-01-31T19:16:20.547Z,9.75
2024-01-31T19:18:34.029Z,9.78
2024-01-31T19:20:46.816Z,9.81
2024-01-31T19:22:59.445Z,9.82
2024-01-31T19:25:16.013Z,9.84
2024-01-31T19:27:28.877Z,9.86
2024-01-31T19:29:41.775Z,9.87
2024-01-31T19:31:54.406Z,9.89
2024-01-31T19:34:06.838Z,9.92
2024-01-31T19:36:24.896Z,9.96
2024-01-31T19:38:38.212Z,9.97
2024-01-31T19:40:51.213Z,10.02
2024-01-31T19:43:04.038Z,10.04
2024-01-31T19:45:17.131Z,10.05
2024-01-31T19:47:29.666Z,10.06
2024-01-31T19:49:43.542Z,10.03
2024-01-31T19:51:56.333Z,10.02
2024-01-31T19:54:12.064Z,10.00
2024-01-31T19:56:25.905Z,10.00
2024-01-31T19:58:38.621Z,9.96
2024-01-31T20:00:51.450Z,9.94
2024-01-31T20:03:04.237Z,9.93
2024-01-31T20:05:17.058Z,9.92
2024-01-31T20:07:29.633Z,9.91
2024-01-31T20:09:42.354Z,9.90
2024-01-31T20:11:55.448Z,9.91
2024-01-31T20:14:08.013Z,9.92
2024-01-31T20:16:21.496Z,9.90
2024-01-31T20:18:34.124Z,9.88
2024-01-31T20:20:48.756Z,9.85
2024-01-31T20:23:02.166Z,9.81
2024-01-31T20:25:14.934Z,9.79
2024-01-31T20:27:27.479Z,9.75
2024-01-31T20:29:40.066Z,9.72
2024-01-31T20:31:53.166Z,9.70
2024-01-31T20:34:05.790Z,9.70
2024-01-31T20:36:23.794Z,9.72
2024-01-31T20:38:36.345Z,9.72
2024-01-31T20:40:48.937Z,9.74
2024-01-31T20:43:01.453Z,9.75
2024-01-31T20:45:15.205Z,9.77
2024-01-31T20:47:28.221Z,9.78
2024-01-31T20:49:44.030Z,9.79
2024-01-31T20:51:56.694Z,9.79
2024-01-31T20:54:09.866Z,9.81
2024-01-31T20:56:27.788Z,9.81
2024-01-31T20:58:42.218Z,9.81
2024-01-31T21:00:55.003Z,9.81
2024-01-31T21:03:08.198Z,9.78
2024-01-31T21:05:21.466Z,9.80
2024-01-31T21:07:41.049Z,9.81
2024-01-31T21:09:53.660Z,9.82
2024-01-31T21:12:06.250Z,9.82
2024-01-31T21:14:18.848Z,9.83
2024-01-31T21:16:32.001Z,9.82
2024-01-31T21:18:45.468Z,9.82
2024-01-31T21:20:59.305Z,9.84
2024-01-31T21:23:14.100Z,9.84
2024-01-31T21:25:27.128Z,9.82
2024-01-31T21:27:39.896Z,9.78
2024-01-31T21:29:52.734Z,9.79
2024-01-31T21:32:05.800Z,9.78
2024-01-31T21:34:19.324Z,9.82
2024-01-31T21:36:32.248Z,9.82
2024-01-31T21:38:45.124Z,9.85
2024-01-31T21:40:59.729Z,9.87
2024-01-31T21:43:14.337Z,9.90
2024-01-31T21:45:27.128Z,9.92
2024-01-31T21:47:40.130Z,9.95
2024-01-31T21:49:53.313Z,9.95
2024-01-31T21:52:06.234Z,9.97
2024-01-31T21:54:19.034Z,9.97
2024-01-31T21:56:31.690Z,9.99
2024-01-31T21:58:44.243Z,9.98
2024-01-31T22:00:57.197Z,10.01
2024-01-31T22:03:10.838Z,10.02
2024-01-31T22:05:24.360Z,10.03
2024-01-31T22:07:37.580Z,10.04
2024-01-31T22:09:50.489Z,10.04
2024-01-31T22:12:03.522Z,10.03
2024-01-31T22:14:16.111Z,10.03
2024-01-31T22:16:29.186Z,10.02
2024-01-31T22:18:42.194Z,10.02
2024-01-31T22:20:55.267Z,9.99
2024-01-31T22:23:09.201Z,9.96
2024-01-31T22:25:22.302Z,9.95
2024-01-31T22:27:34.934Z,9.93
2024-01-31T22:29:47.418Z,9.92
2024-01-31T22:32:05.741Z,9.92
2024-01-31T22:34:18.376Z,9.93
2024-01-31T22:36:31.429Z,9.94
2024-01-31T22:38:43.979Z,9.96
2024-01-31T22:40:57.773Z,9.97
2024-01-31T22:43:10.914Z,10.00
2024-01-31T22:45:23.412Z,10.02
2024-01-31T22:47:36.481Z,10.05
2024-01-31T22:49:49.446Z,10.07
2024-01-31T22:52:02.173Z,10.09
2024-01-31T22:54:14.714Z,10.10
2024-01-31T22:56:27.270Z,10.11
2024-01-31T22:58:40.364Z,10.11
2024-01-31T23:00:53.443Z,10.11
2024-01-31T23:03:06.128Z,10.12
2024-01-31T23:05:18.647Z,10.10
2024-01-31T23:07:31.676Z,10.10
2024-01-31T23:09:44.507Z,10.09
2024-01-31T23:11:57.096Z,10.09
2024-01-31T23:14:10.143Z,10.10
2024-01-31T23:16:22.997Z,10.11
2024-01-31T23:18:36.219Z,10.13
2024-01-31T23:20:48.886Z,10.15
2024-01-31T23:23:01.517Z,10.18
2024-01-31T23:25:16.041Z,10.21
2024-01-31T23:27:28.876Z,10.24
2024-01-31T23:29:41.717Z,10.25
2024-01-31T23:31:54.599Z,10.32
2024-01-31T23:34:07.322Z,10.35
2024-01-31T23:36:21.185Z,10.38
2024-01-31T23:38:34.805Z,10.40
2024-01-31T23:40:47.766Z,10.41
2024-01-31T23:43:00.606Z,10.43
2024-01-31T23:45:14.455Z,10.45
2024-01-31T23:47:28.163Z,10.46
2024-01-31T23:49:41.648Z,10.47
2024-01-31T23:51:54.231Z,10.48
2024-01-31T23:54:07.107Z,10.48
2024-01-31T23:56:23.689Z,10.49
2024-01-31T23:58:36.247Z,10.48
